.
WxDataArchive / Data Records for 2014-04-20
2014-04-19 April 2014 2014-04-21

Data Records for Sunday, 20 April 2014

Time	Temp	Chill	HIndex	Humid	Dewpt	 Wind 	HiWind	WindDir	Rain 	Barom
-----	----	-----	------	-----	-----	------	------	-------	-----	-----
00:00	42.9	42.9	42.9	54	27.4	0	1	90	0.00	30.316 
00:05	42.8	42.8	42.8	54	27.3	0	2	90	0.00	30.316 
00:10	42.6	42.6	42.6	56	28.0	0	2	90	0.00	30.316 
00:15	42.3	42.3	42.3	56	27.7	0	2	90	0.00	30.310 
00:20	42.2	42.2	42.2	56	27.6	0	0	---	0.00	30.310 
00:25	41.9	41.9	41.9	57	27.8	0	0	---	0.00	30.310 
00:30	41.6	41.6	41.6	57	27.5	0	0	---	0.00	30.310 
00:35	41.2	41.2	41.2	58	27.6	0	0	---	0.00	30.310 
00:40	40.8	40.8	40.8	59	27.6	0	0	---	0.00	30.310 
00:45	40.3	40.3	40.3	61	27.9	0	0	---	0.00	30.310 
00:50	40.1	40.1	40.1	62	28.1	0	0	---	0.00	30.310 
00:55	39.9	39.9	39.9	62	28.0	0	0	---	0.00	30.310 
01:00	39.8	39.8	39.8	62	27.9	0	0	---	0.00	30.301 
01:05	39.8	39.8	39.8	62	27.9	0	1	90	0.00	30.301 
01:10	39.9	39.9	39.9	61	27.6	0	1	90	0.00	30.301 
01:15	40.1	40.1	40.1	61	27.7	0	2	90	0.00	30.297 
01:20	40.3	40.3	40.3	61	27.9	0	1	90	0.00	30.297 
01:25	40.6	40.6	40.6	60	27.8	0	1	90	0.00	30.297 
01:30	40.8	40.8	40.8	60	28.0	0	1	90	0.00	30.296 
01:35	40.9	40.9	40.9	60	28.1	1	3	90	0.00	30.296 
01:40	41.1	41.1	41.1	61	28.7	0	1	90	0.00	30.296 
01:45	41.2	41.2	41.2	61	28.8	0	2	90	0.00	30.301 
01:50	41.2	41.2	41.2	61	28.8	0	2	90	0.00	30.301 
01:55	41.1	41.1	41.1	61	28.7	0	1	90	0.00	30.301 
02:00	40.9	40.9	40.9	62	28.9	0	0	---	0.00	30.303 
02:05	40.6	40.6	40.6	62	28.6	0	0	---	0.00	30.303 
02:10	40.3	40.3	40.3	63	28.7	0	0	---	0.00	30.303 
02:15	40.2	40.2	40.2	63	28.6	0	0	---	0.00	30.295 
02:20	40.1	40.1	40.1	64	28.9	0	2	90	0.00	30.295 
02:25	39.9	39.9	39.9	64	28.7	0	2	90	0.00	30.295 
02:30	39.9	39.9	39.9	64	28.7	0	1	90	0.00	30.292 
02:35	40.1	40.1	40.1	64	28.9	0	1	90	0.00	30.292 
02:40	40.1	40.1	40.1	64	28.9	0	2	90	0.00	30.292 
02:45	40.1	40.1	40.1	64	28.9	0	1	90	0.00	30.292 
02:50	40.1	40.1	40.1	64	28.9	0	2	90	0.00	30.292 
02:55	40.1	40.1	40.1	64	28.9	0	2	90	0.00	30.292 
03:00	40.1	40.1	40.1	64	28.9	0	2	90	0.00	30.291 
03:05	39.9	39.9	39.9	64	28.7	0	2	90	0.00	30.291 
03:10	39.8	39.8	39.8	64	28.6	0	2	90	0.00	30.291 
03:15	39.6	39.6	39.6	65	28.8	0	1	90	0.00	30.293 
03:20	39.5	39.5	39.5	65	28.7	0	2	90	0.00	30.293 
03:25	39.3	39.3	39.3	66	28.9	0	2	90	0.00	30.293 
03:30	39.1	39.1	39.1	66	28.7	0	1	90	0.00	30.293 
03:35	38.9	38.9	38.9	67	28.9	0	2	90	0.00	30.293 
03:40	38.8	38.8	38.8	67	28.8	1	3	90	0.00	30.293 
03:45	38.6	38.6	38.6	68	29.0	0	2	90	0.00	30.291 
03:50	38.6	38.6	38.6	68	29.0	0	3	90	0.00	30.291 
03:55	38.6	38.6	38.6	68	29.0	1	3	90	0.00	30.291 
04:00	38.6	38.6	38.6	69	29.3	0	2	90	0.00	30.292 
04:05	38.5	38.5	38.5	69	29.2	0	2	90	0.00	30.292 
04:10	38.5	38.5	38.5	69	29.2	0	2	90	0.00	30.292 
04:15	38.5	38.5	38.5	70	29.6	0	2	90	0.00	30.287 
04:20	38.3	38.3	38.3	70	29.4	0	1	90	0.00	30.287 
04:25	38.2	38.2	38.2	70	29.3	0	0	---	0.00	30.287 
04:30	37.9	37.9	37.9	71	29.4	0	0	---	0.00	30.292 
04:35	37.6	37.6	37.6	71	29.1	0	0	---	0.00	30.292 
04:40	37.3	37.3	37.3	72	29.1	0	0	---	0.00	30.292 
04:45	37.0	37.0	37.0	73	29.2	0	0	---	0.00	30.286 
04:50	36.9	36.9	36.9	74	29.4	0	0	---	0.00	30.286 
04:55	36.9	36.9	36.9	75	29.7	0	0	---	0.00	30.286 
05:00	36.6	36.6	36.6	75	29.4	0	0	---	0.00	30.280 
05:05	36.5	36.5	36.5	75	29.3	0	0	---	0.00	30.280 
05:10	36.3	36.3	36.3	76	29.5	0	0	---	0.00	30.280 
05:15	36.3	36.3	36.3	77	29.8	0	0	---	0.00	30.278 
05:20	36.3	36.3	36.3	77	29.8	0	0	---	0.00	30.278 
05:25	36.3	36.3	36.3	77	29.8	0	1	90	0.00	30.278 
05:30	36.3	36.3	36.3	77	29.8	0	0	---	0.00	30.268 
05:35	36.3	36.3	36.3	76	29.5	0	0	---	0.00	30.268 
05:40	36.2	36.2	36.2	76	29.4	0	1	90	0.00	30.268 
05:45	36.2	36.2	36.2	76	29.4	0	1	90	0.00	30.267 
05:50	36.2	36.2	36.2	77	29.7	0	1	90	0.00	30.267 
05:55	36.2	36.2	36.2	77	29.7	0	1	90	0.00	30.267 
06:00	36.0	36.0	36.0	76	29.2	0	0	---	0.00	30.277 
06:05	35.8	35.8	35.8	77	29.3	0	0	---	0.00	30.277 
06:10	35.6	35.6	35.6	78	29.4	0	0	---	0.00	30.277 
06:15	35.5	35.5	35.5	78	29.3	0	0	---	0.00	30.273 
06:20	35.3	35.3	35.3	78	29.1	0	0	---	0.00	30.273 
06:25	35.2	35.2	35.2	79	29.4	0	0	---	0.00	30.273 
06:30	35.0	35.0	35.0	80	29.5	0	0	---	0.00	30.272 
06:35	34.9	34.9	34.9	80	29.4	0	0	---	0.00	30.272 
06:40	34.9	34.9	34.9	81	29.7	0	1	90	0.00	30.272 
06:45	35.0	35.0	35.0	81	29.8	0	1	90	0.00	30.271 
06:50	35.0	35.0	35.0	81	29.8	0	1	90	0.00	30.271 
06:55	35.2	35.2	35.2	81	30.0	0	1	90	0.00	30.271 
07:00	35.2	35.2	35.2	81	30.0	0	1	90	0.00	30.276 
07:05	35.3	35.3	35.3	81	30.1	0	0	---	0.00	30.276 
07:10	35.2	35.2	35.2	81	30.0	0	0	---	0.00	30.276 
07:15	35.2	35.2	35.2	81	30.0	0	0	---	0.00	30.283 
07:20	35.2	35.2	35.2	81	30.0	0	1	90	0.00	30.283 
07:25	35.3	35.3	35.3	81	30.1	0	1	90	0.00	30.283 
07:30	35.5	35.5	35.5	80	30.0	0	2	90	0.00	30.284 
07:35	35.8	35.8	35.8	80	30.2	1	3	90	0.00	30.284 
07:40	36.0	36.0	36.0	79	30.1	1	3	90	0.00	30.284 
07:45	36.3	36.3	36.3	79	30.4	0	2	90	0.00	30.284 
07:50	36.8	36.8	36.8	79	30.9	0	1	90	0.00	30.284 
07:55	37.5	37.5	37.5	78	31.3	0	3	90	0.00	30.284 
08:00	38.2	38.2	38.2	77	31.6	1	3	90	0.00	30.291 
08:05	38.8	38.8	38.8	75	31.6	1	4	90	0.00	30.291 
08:10	39.1	39.1	39.1	75	31.9	1	4	90	0.00	30.291 
08:15	39.6	39.6	39.6	74	32.0	1	3	90	0.00	30.290 
08:20	40.2	40.2	40.2	73	32.2	2	4	90	0.00	30.290 
08:25	40.6	40.6	40.6	73	32.6	2	4	90	0.00	30.290 
08:30	41.1	41.1	41.1	71	32.4	1	5	90	0.00	30.286 
08:35	41.3	41.3	41.3	71	32.6	2	5	90	0.00	30.286 
08:40	41.5	41.5	41.5	71	32.8	3	5	90	0.00	30.286 
08:45	41.8	41.8	41.8	71	33.1	2	4	90	0.00	30.287 
08:50	42.2	42.2	42.2	70	33.1	2	5	90	0.00	30.287 
08:55	42.5	42.5	42.5	70	33.4	1	3	68	0.00	30.287 
09:00	42.8	42.8	42.8	70	33.7	2	4	90	0.00	30.284 
09:05	43.5	43.5	43.5	68	33.7	1	5	90	0.00	30.284 
09:10	43.9	43.9	43.9	67	33.7	2	5	90	0.00	30.284 
09:15	44.1	44.1	44.1	67	33.9	2	6	90	0.00	30.292 
09:20	44.5	44.5	44.5	67	34.2	2	5	90	0.00	30.292 
09:25	45.2	45.2	45.2	67	34.9	1	4	68	0.00	30.292 
09:30	46.1	46.1	46.1	65	35.0	1	4	90	0.00	30.286 
09:35	47.0	47.0	47.0	62	34.7	1	4	90	0.00	30.286 
09:40	47.9	47.9	47.9	59	34.3	1	6	90	0.00	30.286 
09:45	48.2	48.2	48.2	59	34.6	1	5	112	0.00	30.280 
09:50	48.8	48.8	48.8	58	34.7	1	3	112	0.00	30.280 
09:55	49.4	49.4	49.4	57	34.8	1	3	112	0.00	30.280 
10:00	49.5	49.5	49.5	57	34.9	2	4	112	0.00	30.272 
10:05	50.1	50.1	50.1	56	35.0	1	5	112	0.00	30.272 
10:10	50.8	50.8	50.8	53	34.3	2	5	112	0.00	30.272 
10:15	51.6	51.6	51.6	52	34.6	1	4	112	0.00	30.268 
10:20	52.5	52.5	52.5	51	34.9	0	2	112	0.00	30.268 
10:25	53.5	53.5	53.5	50	35.3	1	3	112	0.00	30.268 
10:30	54.2	54.2	54.2	49	35.5	1	4	112	0.00	30.269 
10:35	54.5	54.5	54.5	48	35.2	1	4	112	0.00	30.269 
10:40	55.1	55.1	55.1	46	34.7	1	2	112	0.00	30.269 
10:45	56.0	56.0	56.0	48	36.6	0	2	112	0.00	30.266 
10:50	56.9	56.9	56.9	45	35.8	1	3	112	0.00	30.266 
10:55	57.2	57.2	57.2	43	34.9	2	3	112	0.00	30.266 
11:00	57.5	57.5	57.5	43	35.2	1	3	112	0.00	30.259 
11:05	58.3	58.3	58.3	41	34.7	1	4	112	0.00	30.259 
11:10	58.9	58.9	58.9	40	34.6	1	3	112	0.00	30.259 
11:15	59.5	59.5	59.5	39	34.5	1	3	112	0.00	30.258 
11:20	60.1	60.1	60.1	36	33.1	1	3	112	0.00	30.258 
11:25	60.7	60.7	60.7	36	33.6	1	4	112	0.00	30.258 
11:30	61.3	61.3	61.3	35	33.4	1	2	112	0.00	30.251 
11:35	62.1	62.1	62.1	34	33.4	0	3	112	0.00	30.251 
11:40	62.4	62.4	62.4	33	32.9	2	4	112	0.00	30.251 
11:45	62.9	62.9	62.9	33	33.4	1	3	112	0.00	30.239 
11:50	63.1	63.1	63.1	34	34.3	2	4	112	0.00	30.239 
11:55	63.2	63.2	63.2	32	32.9	1	4	68	0.00	30.239 
12:00	63.1	63.1	63.1	33	33.5	1	2	68	0.00	30.238 
12:05	63.2	63.2	63.2	35	35.1	0	1	68	0.00	30.238 
12:10	63.5	63.5	63.5	34	34.6	0	1	68	0.00	30.238 
12:15	63.9	63.9	63.9	37	37.1	0	1	68	0.00	30.238 
12:20	64.5	64.5	64.5	32	34.0	1	3	0	0.00	30.238 
12:25	65.0	65.0	65.0	31	33.6	0	2	0	0.00	30.238 
12:30	65.0	65.0	65.0	31	33.6	0	3	270	0.00	30.233 
12:35	65.5	65.5	65.5	31	34.1	1	5	112	0.00	30.233 
12:40	65.8	65.8	65.8	33	35.9	2	7	90	0.00	30.233 
12:45	66.1	66.1	66.1	29	32.9	1	4	90	0.00	30.223 
12:50	66.6	66.6	66.6	36	38.8	1	3	248	0.00	30.223 
12:55	67.1	67.1	67.1	31	35.4	0	2	112	0.00	30.223 
13:00	67.6	67.6	67.6	30	35.1	1	3	248	0.00	30.218 
13:05	67.6	67.6	67.6	27	32.4	1	2	248	0.00	30.218 
13:10	67.9	67.9	67.9	32	36.9	1	3	90	0.00	30.218 
13:15	68.9	68.9	68.9	33	38.6	0	3	90	0.00	30.204 
13:20	69.3	69.3	69.3	30	36.5	1	3	22	0.00	30.204 
13:25	68.9	68.9	68.9	30	36.2	1	4	22	0.00	30.204 
13:30	69.3	69.3	69.3	27	33.9	1	4	292	0.00	30.203 
13:35	69.4	69.4	69.4	28	34.9	1	3	248	0.00	30.203 
13:40	69.8	69.8	69.8	30	37.0	1	4	270	0.00	30.203 
13:45	69.9	69.9	69.9	32	38.7	0	2	90	0.00	30.203 
13:50	70.3	70.3	70.3	31	38.2	1	3	90	0.00	30.203 
13:55	70.1	70.1	70.1	27	34.6	1	3	112	0.00	30.203 
14:00	69.6	69.6	69.6	26	33.2	1	3	112	0.00	30.200 
14:05	69.3	69.3	69.3	27	33.9	1	4	248	0.00	30.200 
14:10	69.8	69.8	69.8	28	35.2	1	5	248	0.00	30.200 
14:15	70.4	70.4	70.4	25	32.9	0	4	90	0.00	30.189 
14:20	70.3	70.3	70.3	24	31.8	1	3	90	0.00	30.189 
14:25	70.1	70.1	70.1	25	32.6	1	3	90	0.00	30.189 
14:30	70.4	70.4	70.4	26	33.9	1	6	90	0.00	30.187 
14:35	70.8	70.8	70.8	28	36.1	0	2	90	0.00	30.187 
14:40	71.1	71.1	71.1	25	33.5	2	6	22	0.00	30.187 
14:45	71.6	71.6	71.6	25	33.9	1	4	90	0.00	30.177 
14:50	71.8	71.8	71.8	25	34.1	1	3	112	0.00	30.177 
14:55	71.8	71.8	71.8	22	30.9	0	2	112	0.00	30.177 
15:00	72.3	72.3	72.3	28	37.4	1	4	112	0.00	30.174 
15:05	72.7	72.7	72.7	25	34.8	1	3	248	0.00	30.174 
15:10	72.5	72.5	72.5	24	33.6	1	4	248	0.00	30.174 
15:15	72.7	72.7	72.7	25	34.8	0	3	225	0.00	30.168 
15:20	72.8	72.8	72.8	24	33.9	1	3	225	0.00	30.168 
15:25	73.0	73.0	73.0	25	35.1	0	2	225	0.00	30.168 
15:30	73.2	73.2	73.2	24	34.2	0	1	225	0.00	30.165 
15:35	73.7	73.7	73.7	25	35.7	1	4	225	0.00	30.165 
15:40	73.5	73.5	73.5	26	36.5	2	5	90	0.00	30.165 
15:45	73.3	73.3	73.3	25	35.3	1	3	90	0.00	30.154 
15:50	73.3	73.3	73.3	27	37.3	1	3	90	0.00	30.154 
15:55	73.3	73.3	73.3	22	32.2	1	3	90	0.00	30.154 
16:00	73.5	73.5	73.5	28	38.4	0	1	90	0.00	30.147 
16:05	73.9	73.9	73.9	23	33.8	0	4	90	0.00	30.147 
16:10	74.2	74.2	74.2	23	34.0	0	2	90	0.00	30.147 
16:15	74.4	74.4	74.4	21	31.9	1	3	90	0.00	30.149 
16:20	74.0	74.0	74.0	23	33.8	1	5	90	0.00	30.149 
16:25	74.0	74.0	74.0	25	35.9	0	3	135	0.00	30.149 
16:30	73.9	73.9	73.9	21	31.5	1	3	135	0.00	30.145 
16:35	73.9	73.9	73.9	21	31.5	1	2	135	0.00	30.145 
16:40	73.7	73.7	73.7	24	34.7	1	4	90	0.00	30.145 
16:45	73.7	73.7	73.7	25	35.7	1	4	90	0.00	30.140 
16:50	73.7	73.7	73.7	22	32.5	1	4	90	0.00	30.140 
16:55	73.5	73.5	73.5	21	31.2	1	4	90	0.00	30.140 
17:00	73.7	73.7	73.7	25	35.7	1	3	90	0.00	30.137 
17:05	74.4	74.4	74.4	19	29.4	0	2	90	0.00	30.137 
17:10	74.4	74.4	74.4	21	31.9	1	4	90	0.00	30.137 
17:15	73.9	73.9	73.9	21	31.5	0	1	45	0.00	30.132 
17:20	73.7	73.7	73.7	22	32.5	1	4	68	0.00	30.132 
17:25	73.5	73.5	73.5	23	33.4	1	4	68	0.00	30.132 
17:30	73.5	73.5	73.5	22	32.3	1	4	112	0.00	30.127 
17:35	73.7	73.7	73.7	22	32.5	1	3	180	0.00	30.127 
17:40	73.9	73.9	73.9	23	33.8	0	2	180	0.00	30.127 
17:45	74.0	74.0	74.0	23	33.8	0	3	90	0.00	30.129 
17:50	73.9	73.9	73.9	22	32.7	0	1	90	0.00	30.129 
17:55	74.0	74.0	74.0	23	33.8	1	3	90	0.00	30.129 
18:00	74.0	74.0	74.0	22	32.7	0	3	90	0.00	30.124 
18:05	73.9	73.9	73.9	23	33.8	0	2	90	0.00	30.124 
18:10	73.9	73.9	73.9	24	34.8	0	2	90	0.00	30.124 
18:15	73.5	73.5	73.5	24	34.5	0	1	90	0.00	30.123 
18:20	73.2	73.2	73.2	24	34.2	0	1	90	0.00	30.123 
18:25	73.0	73.0	73.0	22	31.9	1	3	90	0.00	30.123 
18:30	73.0	73.0	73.0	23	33.0	0	1	90	0.00	30.119 
18:35	73.0	73.0	73.0	23	33.0	0	2	90	0.00	30.119 
18:40	72.8	72.8	72.8	24	33.9	0	2	90	0.00	30.119 
18:45	72.5	72.5	72.5	24	33.6	0	2	90	0.00	30.112 
18:50	72.3	72.3	72.3	25	34.5	0	2	90	0.00	30.112 
18:55	72.1	72.1	72.1	24	33.3	0	2	90	0.00	30.112 
19:00	71.8	71.8	71.8	24	33.1	0	2	90	0.00	30.113 
19:05	71.6	71.6	71.6	23	31.8	0	2	90	0.00	30.113 
19:10	71.6	71.6	71.6	23	31.8	0	2	90	0.00	30.113 
19:15	71.6	71.6	71.6	25	33.9	0	1	90	0.00	30.108 
19:20	71.5	71.5	71.5	25	33.8	0	1	90	0.00	30.108 
19:25	71.3	71.3	71.3	26	34.6	0	2	90	0.00	30.108 
19:30	71.1	71.1	71.1	25	33.5	0	0	---	0.00	30.106 
19:35	70.9	70.9	70.9	25	33.3	0	1	90	0.00	30.106 
19:40	70.9	70.9	70.9	25	33.3	0	0	---	0.00	30.106 
19:45	70.6	70.6	70.6	25	33.1	0	1	90	0.00	30.099 
19:50	70.1	70.1	70.1	25	32.6	0	0	---	0.00	30.099 
19:55	69.8	69.8	69.8	25	32.4	0	0	---	0.00	30.099 
20:00	69.4	69.4	69.4	26	33.0	0	0	---	0.00	30.100 
20:05	68.9	68.9	68.9	26	32.6	0	0	---	0.00	30.100 
20:10	68.4	68.4	68.4	26	32.2	0	0	---	0.00	30.100 
20:15	67.9	67.9	67.9	26	31.7	0	0	---	0.00	30.098 
20:20	67.3	67.3	67.3	27	32.2	0	0	---	0.00	30.098 
20:25	66.8	66.8	66.8	29	33.5	0	0	---	0.00	30.098 
20:30	66.1	66.1	66.1	30	33.8	0	0	---	0.00	30.096 
20:35	65.5	65.5	65.5	28	31.5	0	0	---	0.00	30.096 
20:40	64.7	64.7	64.7	29	31.7	0	0	---	0.00	30.096 
20:45	64.0	64.0	64.0	31	32.8	0	0	---	0.00	30.098 
20:50	63.4	63.4	63.4	33	33.8	0	0	---	0.00	30.098 
20:55	62.7	62.7	62.7	34	33.9	0	0	---	0.00	30.098 
21:00	62.1	62.1	62.1	36	34.8	0	0	---	0.00	30.098 
21:05	61.6	61.6	61.6	36	34.4	0	0	---	0.00	30.098 
21:10	61.2	61.2	61.2	38	35.4	0	0	---	0.00	30.098 
21:15	60.7	60.7	60.7	39	35.6	0	0	---	0.00	30.095 
21:20	60.2	60.2	60.2	39	35.2	0	0	---	0.00	30.095 
21:25	59.8	59.8	59.8	40	35.4	0	0	---	0.00	30.095 
21:30	59.5	59.5	59.5	42	36.4	0	0	---	0.00	30.098 
21:35	59.2	59.2	59.2	42	36.1	0	0	---	0.00	30.098 
21:40	58.7	58.7	58.7	42	35.7	0	0	---	0.00	30.098 
21:45	58.4	58.4	58.4	44	36.6	0	0	---	0.00	30.101 
21:50	58.1	58.1	58.1	45	36.9	0	0	---	0.00	30.101 
21:55	57.8	57.8	57.8	45	36.6	0	0	---	0.00	30.101 
22:00	57.5	57.5	57.5	47	37.4	0	0	---	0.00	30.105 
22:05	57.0	57.0	57.0	48	37.5	0	0	---	0.00	30.105 
22:10	56.7	56.7	56.7	48	37.2	0	0	---	0.00	30.105 
22:15	56.3	56.3	56.3	47	36.3	0	0	---	0.00	30.096 
22:20	56.0	56.0	56.0	48	36.6	0	0	---	0.00	30.096 
22:25	55.7	55.7	55.7	50	37.3	0	0	---	0.00	30.096 
22:30	55.4	55.4	55.4	49	36.6	0	0	---	0.00	30.097 
22:35	55.1	55.1	55.1	50	36.8	0	0	---	0.00	30.097 
22:40	55.0	55.0	55.0	51	37.2	0	0	---	0.00	30.097 
22:45	54.7	54.7	54.7	51	36.9	0	0	---	0.00	30.092 
22:50	54.4	54.4	54.4	51	36.7	0	0	---	0.00	30.092 
22:55	53.9	53.9	53.9	51	36.2	0	0	---	0.00	30.092 
23:00	53.6	53.6	53.6	52	36.4	0	0	---	0.00	30.090 
23:05	53.5	53.5	53.5	53	36.8	0	0	---	0.00	30.090 
23:10	53.2	53.2	53.2	53	36.5	0	0	---	0.00	30.090 
23:15	52.9	52.9	52.9	54	36.7	0	0	---	0.00	30.084 
23:20	52.6	52.6	52.6	54	36.4	0	0	---	0.00	30.084 
23:25	52.5	52.5	52.5	55	36.8	0	0	---	0.00	30.084 
23:30	52.2	52.2	52.2	55	36.5	0	0	---	0.00	30.081 
23:35	51.9	51.9	51.9	55	36.2	0	0	---	0.00	30.081 
23:40	51.7	51.7	51.7	56	36.5	0	0	---	0.00	30.081 
23:45	51.6	51.6	51.6	56	36.4	0	0	---	0.00	30.074 
23:50	51.3	51.3	51.3	57	36.6	0	0	---	0.00	30.074 
23:55	51.0	51.0	51.0	58	36.7	0	0	---	0.00	30.074 

CoCoRaHS
IN-AL-39
A2 Web Hosting
Creative Commons License
GoDaddy
search engine by freefind advanced

loaded 2018-11-19 11:45:14 • last modified 2010-11-18 10:43:29
Privacy PolicyDisclaimer
• wx.awcolley.com is powered by PmWiki v.2002016 •
• all content (unless otherwise noted) © 2018 A W Colley